sensor_id;sensor_type;location;lat;lon;timestamp;P1;durP1;ratioP1;P2;durP2;ratioP2
12383;SDS011;6256;63.808;20.336;2023-08-08T00:00:38;10.57;;;9.57;;
12383;SDS011;6256;63.808;20.336;2023-08-08T00:03:04;10.88;;;9.88;;
12383;SDS011;6256;63.808;20.336;2023-08-08T00:05:30;12.35;;;9.27;;
12383;SDS011;6256;63.808;20.336;2023-08-08T00:07:55;11.73;;;9.23;;
12383;SDS011;6256;63.808;20.336;2023-08-08T00:10:21;10.00;;;8.98;;
12383;SDS011;6256;63.808;20.336;2023-08-08T00:12:47;9.38;;;8.48;;
12383;SDS011;6256;63.808;20.336;2023-08-08T00:15:12;10.05;;;9.07;;
12383;SDS011;6256;63.808;20.336;2023-08-08T00:17:38;10.85;;;9.30;;
12383;SDS011;6256;63.808;20.336;2023-08-08T00:20:04;11.07;;;9.18;;
12383;SDS011;6256;63.808;20.336;2023-08-08T00:22:30;9.68;;;8.68;;
12383;SDS011;6256;63.808;20.336;2023-08-08T00:24:56;13.13;;;9.00;;
12383;SDS011;6256;63.808;20.336;2023-08-08T00:27:22;9.55;;;8.65;;
12383;SDS011;6256;63.808;20.336;2023-08-08T00:29:48;11.32;;;8.77;;
12383;SDS011;6256;63.808;20.336;2023-08-08T00:32:15;10.07;;;8.88;;
12383;SDS011;6256;63.808;20.336;2023-08-08T00:34:41;9.57;;;8.68;;
12383;SDS011;6256;63.808;20.336;2023-08-08T00:37:07;11.50;;;8.20;;
12383;SDS011;6256;63.808;20.336;2023-08-08T00:39:33;10.25;;;8.75;;
12383;SDS011;6256;63.808;20.336;2023-08-08T00:41:58;9.27;;;8.35;;
12383;SDS011;6256;63.808;20.336;2023-08-08T00:44:24;10.18;;;9.00;;
12383;SDS011;6256;63.808;20.336;2023-08-08T00:46:50;9.55;;;8.27;;
12383;SDS011;6256;63.808;20.336;2023-08-08T00:49:15;8.98;;;8.07;;
12383;SDS011;6256;63.808;20.336;2023-08-08T00:51:41;9.50;;;8.60;;
12383;SDS011;6256;63.808;20.336;2023-08-08T00:54:07;10.23;;;8.50;;
12383;SDS011;6256;63.808;20.336;2023-08-08T00:56:35;10.30;;;8.27;;
12383;SDS011;6256;63.808;20.336;2023-08-08T00:59:01;10.00;;;8.25;;
12383;SDS011;6256;63.808;20.336;2023-08-08T01:01:27;8.80;;;7.97;;
12383;SDS011;6256;63.808;20.336;2023-08-08T01:03:53;8.77;;;7.97;;
12383;SDS011;6256;63.808;20.336;2023-08-08T01:09:01;9.07;;;8.18;;
12383;SDS011;6256;63.808;20.336;2023-08-08T01:11:34;9.70;;;8.70;;
12383;SDS011;6256;63.808;20.336;2023-08-08T01:14:02;8.88;;;7.97;;
12383;SDS011;6256;63.808;20.336;2023-08-08T01:16:30;9.48;;;8.55;;
12383;SDS011;6256;63.808;20.336;2023-08-08T01:18:56;8.57;;;7.72;;
12383;SDS011;6256;63.808;20.336;2023-08-08T01:21:22;9.75;;;8.18;;
12383;SDS011;6256;63.808;20.336;2023-08-08T01:26:26;9.13;;;8.23;;
12383;SDS011;6256;63.808;20.336;2023-08-08T01:28:53;8.20;;;7.25;;
12383;SDS011;6256;63.808;20.336;2023-08-08T01:31:19;8.80;;;7.90;;
12383;SDS011;6256;63.808;20.336;2023-08-08T01:33:45;8.55;;;7.65;;
12383;SDS011;6256;63.808;20.336;2023-08-08T01:36:22;8.60;;;7.78;;
12383;SDS011;6256;63.808;20.336;2023-08-08T01:38:53;8.90;;;8.02;;
12383;SDS011;6256;63.808;20.336;2023-08-08T01:41:29;8.02;;;7.22;;
12383;SDS011;6256;63.808;20.336;2023-08-08T01:43:56;8.60;;;7.80;;
12383;SDS011;6256;63.808;20.336;2023-08-08T01:46:23;9.05;;;7.60;;
12383;SDS011;6256;63.808;20.336;2023-08-08T01:48:49;8.85;;;7.97;;
12383;SDS011;6256;63.808;20.336;2023-08-08T01:51:15;8.90;;;8.10;;
12383;SDS011;6256;63.808;20.336;2023-08-08T01:53:41;9.43;;;7.57;;
12383;SDS011;6256;63.808;20.336;2023-08-08T01:56:06;10.20;;;8.13;;
12383;SDS011;6256;63.808;20.336;2023-08-08T01:58:33;8.57;;;7.78;;
12383;SDS011;6256;63.808;20.336;2023-08-08T02:00:59;9.38;;;7.68;;
12383;SDS011;6256;63.808;20.336;2023-08-08T02:03:24;10.70;;;8.13;;
12383;SDS011;6256;63.808;20.336;2023-08-08T02:05:50;9.80;;;8.23;;
12383;SDS011;6256;63.808;20.336;2023-08-08T02:08:16;9.43;;;8.30;;
12383;SDS011;6256;63.808;20.336;2023-08-08T02:10:43;9.63;;;8.07;;
12383;SDS011;6256;63.808;20.336;2023-08-08T02:13:08;8.88;;;7.97;;
12383;SDS011;6256;63.808;20.336;2023-08-08T02:15:34;9.30;;;8.27;;
12383;SDS011;6256;63.808;20.336;2023-08-08T02:18:00;9.45;;;8.52;;
12383;SDS011;6256;63.808;20.336;2023-08-08T02:20:26;10.32;;;8.50;;
12383;SDS011;6256;63.808;20.336;2023-08-08T02:22:52;9.35;;;8.45;;
12383;SDS011;6256;63.808;20.336;2023-08-08T02:25:17;10.95;;;8.00;;
12383;SDS011;6256;63.808;20.336;2023-08-08T02:27:43;9.18;;;8.07;;
12383;SDS011;6256;63.808;20.336;2023-08-08T02:30:09;9.20;;;8.30;;
12383;SDS011;6256;63.808;20.336;2023-08-08T02:32:36;9.30;;;8.40;;
12383;SDS011;6256;63.808;20.336;2023-08-08T02:35:01;11.05;;;8.40;;
12383;SDS011;6256;63.808;20.336;2023-08-08T02:37:27;9.55;;;8.65;;
12383;SDS011;6256;63.808;20.336;2023-08-08T02:39:53;9.65;;;8.70;;
12383;SDS011;6256;63.808;20.336;2023-08-08T02:42:18;9.20;;;7.85;;
12383;SDS011;6256;63.808;20.336;2023-08-08T02:44:44;10.45;;;8.57;;
12383;SDS011;6256;63.808;20.336;2023-08-08T02:47:10;10.10;;;8.35;;
12383;SDS011;6256;63.808;20.336;2023-08-08T02:49:36;8.82;;;7.88;;
12383;SDS011;6256;63.808;20.336;2023-08-08T02:52:01;10.95;;;8.63;;
12383;SDS011;6256;63.808;20.336;2023-08-08T02:54:27;9.45;;;8.55;;
12383;SDS011;6256;63.808;20.336;2023-08-08T02:56:56;10.40;;;8.93;;
12383;SDS011;6256;63.808;20.336;2023-08-08T02:59:21;9.27;;;8.38;;
12383;SDS011;6256;63.808;20.336;2023-08-08T03:01:47;11.00;;;8.75;;
12383;SDS011;6256;63.808;20.336;2023-08-08T03:04:14;9.43;;;8.40;;
12383;SDS011;6256;63.808;20.336;2023-08-08T03:06:40;9.52;;;8.60;;
12383;SDS011;6256;63.808;20.336;2023-08-08T03:09:05;9.40;;;8.32;;
12383;SDS011;6256;63.808;20.336;2023-08-08T03:11:31;9.85;;;8.63;;
12383;SDS011;6256;63.808;20.336;2023-08-08T03:13:57;9.25;;;8.35;;
12383;SDS011;6256;63.808;20.336;2023-08-08T03:16:26;9.27;;;8.38;;
12383;SDS011;6256;63.808;20.336;2023-08-08T03:18:52;10.18;;;8.20;;
12383;SDS011;6256;63.808;20.336;2023-08-08T03:21:17;10.50;;;8.43;;
12383;SDS011;6256;63.808;20.336;2023-08-08T03:23:44;9.75;;;8.75;;
12383;SDS011;6256;63.808;20.336;2023-08-08T03:26:09;9.77;;;8.77;;
12383;SDS011;6256;63.808;20.336;2023-08-08T03:28:35;9.10;;;8.20;;
12383;SDS011;6256;63.808;20.336;2023-08-08T03:31:01;10.27;;;8.70;;
12383;SDS011;6256;63.808;20.336;2023-08-08T03:33:31;10.02;;;8.88;;
12383;SDS011;6256;63.808;20.336;2023-08-08T03:35:56;9.63;;;8.55;;
12383;SDS011;6256;63.808;20.336;2023-08-08T03:38:22;9.57;;;8.63;;
12383;SDS011;6256;63.808;20.336;2023-08-08T03:40:48;9.10;;;8.30;;
12383;SDS011;6256;63.808;20.336;2023-08-08T03:43:13;10.23;;;8.23;;
12383;SDS011;6256;63.808;20.336;2023-08-08T03:45:39;8.90;;;8.10;;
12383;SDS011;6256;63.808;20.336;2023-08-08T03:48:05;9.55;;;8.40;;
12383;SDS011;6256;63.808;20.336;2023-08-08T03:50:31;9.80;;;8.48;;
12383;SDS011;6256;63.808;20.336;2023-08-08T03:52:57;9.35;;;8.43;;
12383;SDS011;6256;63.808;20.336;2023-08-08T03:55:22;9.32;;;8.40;;
12383;SDS011;6256;63.808;20.336;2023-08-08T03:57:48;9.10;;;8.20;;
12383;SDS011;6256;63.808;20.336;2023-08-08T04:00:14;8.52;;;7.72;;
12383;SDS011;6256;63.808;20.336;2023-08-08T04:02:40;8.68;;;7.65;;
12383;SDS011;6256;63.808;20.336;2023-08-08T04:05:06;9.45;;;7.78;;
12383;SDS011;6256;63.808;20.336;2023-08-08T04:07:32;10.30;;;8.15;;
12383;SDS011;6256;63.808;20.336;2023-08-08T04:09:58;9.27;;;8.43;;
12383;SDS011;6256;63.808;20.336;2023-08-08T04:12:24;8.98;;;8.15;;
12383;SDS011;6256;63.808;20.336;2023-08-08T04:14:50;13.63;;;8.30;;
12383;SDS011;6256;63.808;20.336;2023-08-08T04:17:15;8.55;;;7.60;;
12383;SDS011;6256;63.808;20.336;2023-08-08T04:19:41;7.88;;;7.18;;
12383;SDS011;6256;63.808;20.336;2023-08-08T04:22:07;8.73;;;7.75;;
12383;SDS011;6256;63.808;20.336;2023-08-08T04:24:32;8.43;;;7.47;;
12383;SDS011;6256;63.808;20.336;2023-08-08T04:26:58;9.88;;;7.47;;
12383;SDS011;6256;63.808;20.336;2023-08-08T04:29:24;8.52;;;7.72;;
12383;SDS011;6256;63.808;20.336;2023-08-08T04:31:50;8.93;;;7.50;;
12383;SDS011;6256;63.808;20.336;2023-08-08T04:34:15;9.48;;;7.53;;
12383;SDS011;6256;63.808;20.336;2023-08-08T04:36:42;8.27;;;7.05;;
12383;SDS011;6256;63.808;20.336;2023-08-08T04:39:08;8.15;;;7.07;;
12383;SDS011;6256;63.808;20.336;2023-08-08T04:41:33;8.45;;;7.60;;
12383;SDS011;6256;63.808;20.336;2023-08-08T04:43:59;8.60;;;7.80;;
12383;SDS011;6256;63.808;20.336;2023-08-08T04:46:25;8.75;;;7.85;;
12383;SDS011;6256;63.808;20.336;2023-08-08T04:48:50;8.10;;;7.30;;
12383;SDS011;6256;63.808;20.336;2023-08-08T04:51:16;11.20;;;7.32;;
12383;SDS011;6256;63.808;20.336;2023-08-08T04:53:42;9.48;;;7.85;;
12383;SDS011;6256;63.808;20.336;2023-08-08T04:56:08;8.43;;;7.05;;
12383;SDS011;6256;63.808;20.336;2023-08-08T04:58:33;9.52;;;7.20;;
12383;SDS011;6256;63.808;20.336;2023-08-08T05:00:59;8.40;;;7.68;;
12383;SDS011;6256;63.808;20.336;2023-08-08T05:03:25;8.60;;;7.80;;
12383;SDS011;6256;63.808;20.336;2023-08-08T05:05:50;8.38;;;7.55;;
12383;SDS011;6256;63.808;20.336;2023-08-08T05:08:16;8.15;;;7.35;;
12383;SDS011;6256;63.808;20.336;2023-08-08T05:10:42;7.47;;;6.75;;
12383;SDS011;6256;63.808;20.336;2023-08-08T05:13:09;8.23;;;7.45;;
12383;SDS011;6256;63.808;20.336;2023-08-08T05:15:35;8.10;;;6.90;;
12383;SDS011;6256;63.808;20.336;2023-08-08T05:18:01;8.27;;;7.47;;
12383;SDS011;6256;63.808;20.336;2023-08-08T05:20:26;9.88;;;7.60;;
12383;SDS011;6256;63.808;20.336;2023-08-08T05:22:52;8.35;;;7.47;;
12383;SDS011;6256;63.808;20.336;2023-08-08T05:25:18;8.57;;;7.65;;
12383;SDS011;6256;63.808;20.336;2023-08-08T05:27:43;8.88;;;7.97;;
12383;SDS011;6256;63.808;20.336;2023-08-08T05:30:09;8.73;;;7.35;;
12383;SDS011;6256;63.808;20.336;2023-08-08T05:32:35;9.45;;;8.57;;
12383;SDS011;6256;63.808;20.336;2023-08-08T05:35:01;8.63;;;7.82;;
12383;SDS011;6256;63.808;20.336;2023-08-08T05:37:29;8.38;;;7.57;;
12383;SDS011;6256;63.808;20.336;2023-08-08T05:39:55;8.00;;;7.22;;
12383;SDS011;6256;63.808;20.336;2023-08-08T05:42:21;9.45;;;7.72;;
12383;SDS011;6256;63.808;20.336;2023-08-08T05:44:46;8.63;;;7.20;;
12383;SDS011;6256;63.808;20.336;2023-08-08T05:47:12;8.25;;;7.55;;
12383;SDS011;6256;63.808;20.336;2023-08-08T05:49:38;7.93;;;7.22;;
12383;SDS011;6256;63.808;20.336;2023-08-08T05:52:06;8.55;;;7.60;;
12383;SDS011;6256;63.808;20.336;2023-08-08T05:54:32;9.50;;;7.30;;
12383;SDS011;6256;63.808;20.336;2023-08-08T05:56:58;8.85;;;7.75;;
12383;SDS011;6256;63.808;20.336;2023-08-08T05:59:24;8.55;;;7.75;;
12383;SDS011;6256;63.808;20.336;2023-08-08T06:01:50;8.30;;;7.60;;
12383;SDS011;6256;63.808;20.336;2023-08-08T06:04:16;7.85;;;7.15;;
12383;SDS011;6256;63.808;20.336;2023-08-08T06:06:41;8.60;;;7.80;;
12383;SDS011;6256;63.808;20.336;2023-08-08T06:09:07;8.88;;;7.97;;
12383;SDS011;6256;63.808;20.336;2023-08-08T06:11:34;9.00;;;8.18;;
12383;SDS011;6256;63.808;20.336;2023-08-08T06:13:59;8.10;;;7.30;;
12383;SDS011;6256;63.808;20.336;2023-08-08T06:16:25;8.73;;;7.55;;
12383;SDS011;6256;63.808;20.336;2023-08-08T06:18:52;8.73;;;7.43;;
12383;SDS011;6256;63.808;20.336;2023-08-08T06:21:18;8.00;;;7.28;;
12383;SDS011;6256;63.808;20.336;2023-08-08T06:23:43;7.95;;;7.22;;
12383;SDS011;6256;63.808;20.336;2023-08-08T06:26:09;8.57;;;7.10;;
12383;SDS011;6256;63.808;20.336;2023-08-08T06:28:35;8.30;;;7.50;;
12383;SDS011;6256;63.808;20.336;2023-08-08T06:31:01;10.23;;;7.65;;
12383;SDS011;6256;63.808;20.336;2023-08-08T06:33:27;8.90;;;7.75;;
12383;SDS011;6256;63.808;20.336;2023-08-08T06:35:54;8.05;;;7.35;;
12383;SDS011;6256;63.808;20.336;2023-08-08T06:38:20;9.90;;;7.47;;
12383;SDS011;6256;63.808;20.336;2023-08-08T06:40:46;8.93;;;8.05;;
12383;SDS011;6256;63.808;20.336;2023-08-08T06:43:12;11.93;;;7.93;;
12383;SDS011;6256;63.808;20.336;2023-08-08T06:45:38;8.10;;;7.30;;
12383;SDS011;6256;63.808;20.336;2023-08-08T06:48:04;7.68;;;6.93;;
12383;SDS011;6256;63.808;20.336;2023-08-08T06:50:30;8.70;;;7.90;;
12383;SDS011;6256;63.808;20.336;2023-08-08T06:52:56;8.70;;;7.80;;
12383;SDS011;6256;63.808;20.336;2023-08-08T06:55:22;8.45;;;7.65;;
12383;SDS011;6256;63.808;20.336;2023-08-08T06:57:47;9.80;;;7.25;;
12383;SDS011;6256;63.808;20.336;2023-08-08T07:00:13;8.77;;;7.40;;
12383;SDS011;6256;63.808;20.336;2023-08-08T07:02:41;8.30;;;7.60;;
12383;SDS011;6256;63.808;20.336;2023-08-08T07:05:07;8.60;;;7.80;;
12383;SDS011;6256;63.808;20.336;2023-08-08T07:07:34;8.20;;;7.40;;
12383;SDS011;6256;63.808;20.336;2023-08-08T07:10:00;8.57;;;7.60;;
12383;SDS011;6256;63.808;20.336;2023-08-08T07:12:27;11.68;;;7.60;;
12383;SDS011;6256;63.808;20.336;2023-08-08T07:14:55;8.73;;;7.93;;
12383;SDS011;6256;63.808;20.336;2023-08-08T07:17:21;8.75;;;7.97;;
12383;SDS011;6256;63.808;20.336;2023-08-08T07:19:47;9.98;;;8.70;;
12383;SDS011;6256;63.808;20.336;2023-08-08T07:22:12;9.27;;;7.25;;
12383;SDS011;6256;63.808;20.336;2023-08-08T07:24:38;8.98;;;8.23;;
12383;SDS011;6256;63.808;20.336;2023-08-08T07:27:04;8.93;;;8.02;;
12383;SDS011;6256;63.808;20.336;2023-08-08T07:29:30;8.98;;;8.10;;
12383;SDS011;6256;63.808;20.336;2023-08-08T07:31:57;8.50;;;7.70;;
12383;SDS011;6256;63.808;20.336;2023-08-08T07:34:23;8.77;;;7.97;;
12383;SDS011;6256;63.808;20.336;2023-08-08T07:36:50;8.77;;;7.97;;
12383;SDS011;6256;63.808;20.336;2023-08-08T07:39:16;8.68;;;7.78;;
12383;SDS011;6256;63.808;20.336;2023-08-08T07:41:41;9.15;;;8.25;;
12383;SDS011;6256;63.808;20.336;2023-08-08T07:44:07;8.10;;;7.30;;
12383;SDS011;6256;63.808;20.336;2023-08-08T07:46:33;8.50;;;7.70;;
12383;SDS011;6256;63.808;20.336;2023-08-08T07:48:59;8.55;;;7.32;;
12383;SDS011;6256;63.808;20.336;2023-08-08T07:51:28;8.68;;;7.78;;
12383;SDS011;6256;63.808;20.336;2023-08-08T07:53:54;8.52;;;7.78;;
12383;SDS011;6256;63.808;20.336;2023-08-08T07:56:20;8.60;;;7.70;;
12383;SDS011;6256;63.808;20.336;2023-08-08T07:58:46;7.95;;;7.25;;
12383;SDS011;6256;63.808;20.336;2023-08-08T08:01:12;8.57;;;7.78;;
12383;SDS011;6256;63.808;20.336;2023-08-08T08:03:38;8.70;;;7.90;;
12383;SDS011;6256;63.808;20.336;2023-08-08T08:06:04;8.98;;;7.22;;
12383;SDS011;6256;63.808;20.336;2023-08-08T08:08:31;8.25;;;7.55;;
12383;SDS011;6256;63.808;20.336;2023-08-08T08:10:56;8.55;;;7.10;;
12383;SDS011;6256;63.808;20.336;2023-08-08T08:13:22;8.10;;;7.40;;
12383;SDS011;6256;63.808;20.336;2023-08-08T08:15:48;8.45;;;7.60;;
12383;SDS011;6256;63.808;20.336;2023-08-08T08:18:13;7.47;;;6.88;;
12383;SDS011;6256;63.808;20.336;2023-08-08T08:20:42;8.13;;;7.32;;
12383;SDS011;6256;63.808;20.336;2023-08-08T08:23:11;7.47;;;6.88;;
12383;SDS011;6256;63.808;20.336;2023-08-08T08:25:37;8.20;;;7.40;;
12383;SDS011;6256;63.808;20.336;2023-08-08T08:28:03;8.13;;;7.43;;
12383;SDS011;6256;63.808;20.336;2023-08-08T08:30:29;7.90;;;7.10;;
12383;SDS011;6256;63.808;20.336;2023-08-08T08:32:54;9.45;;;7.65;;
12383;SDS011;6256;63.808;20.336;2023-08-08T08:35:21;7.90;;;7.15;;
12383;SDS011;6256;63.808;20.336;2023-08-08T08:37:47;8.00;;;7.22;;
12383;SDS011;6256;63.808;20.336;2023-08-08T08:40:14;7.30;;;6.60;;
12383;SDS011;6256;63.808;20.336;2023-08-08T08:42:40;8.02;;;7.32;;
12383;SDS011;6256;63.808;20.336;2023-08-08T08:45:06;8.80;;;7.53;;
12383;SDS011;6256;63.808;20.336;2023-08-08T08:47:34;7.85;;;7.05;;
12383;SDS011;6256;63.808;20.336;2023-08-08T08:50:01;7.70;;;6.95;;
12383;SDS011;6256;63.808;20.336;2023-08-08T08:52:28;7.60;;;7.00;;
12383;SDS011;6256;63.808;20.336;2023-08-08T08:54:55;8.45;;;7.25;;
12383;SDS011;6256;63.808;20.336;2023-08-08T08:57:22;7.45;;;6.90;;
12383;SDS011;6256;63.808;20.336;2023-08-08T08:59:50;8.15;;;7.38;;
12383;SDS011;6256;63.808;20.336;2023-08-08T09:02:17;8.30;;;7.13;;
12383;SDS011;6256;63.808;20.336;2023-08-08T09:04:43;7.65;;;6.95;;
12383;SDS011;6256;63.808;20.336;2023-08-08T09:07:10;8.55;;;6.68;;
12383;SDS011;6256;63.808;20.336;2023-08-08T09:09:37;9.15;;;6.60;;
12383;SDS011;6256;63.808;20.336;2023-08-08T09:12:03;8.00;;;7.10;;
12383;SDS011;6256;63.808;20.336;2023-08-08T09:14:30;7.32;;;6.63;;
12383;SDS011;6256;63.808;20.336;2023-08-08T09:16:56;7.72;;;7.03;;
12383;SDS011;6256;63.808;20.336;2023-08-08T09:19:23;7.75;;;6.97;;
12383;SDS011;6256;63.808;20.336;2023-08-08T09:21:50;7.57;;;6.78;;
12383;SDS011;6256;63.808;20.336;2023-08-08T09:24:17;7.10;;;6.40;;
12383;SDS011;6256;63.808;20.336;2023-08-08T09:26:43;9.35;;;6.60;;
12383;SDS011;6256;63.808;20.336;2023-08-08T09:29:12;7.65;;;6.53;;
12383;SDS011;6256;63.808;20.336;2023-08-08T09:31:39;7.50;;;6.70;;
12383;SDS011;6256;63.808;20.336;2023-08-08T09:34:05;6.95;;;6.40;;
12383;SDS011;6256;63.808;20.336;2023-08-08T09:36:31;6.75;;;6.15;;
12383;SDS011;6256;63.808;20.336;2023-08-08T09:38:58;6.70;;;6.00;;
12383;SDS011;6256;63.808;20.336;2023-08-08T09:41:24;7.13;;;6.53;;
12383;SDS011;6256;63.808;20.336;2023-08-08T09:43:51;6.50;;;5.90;;
12383;SDS011;6256;63.808;20.336;2023-08-08T09:46:19;7.82;;;6.78;;
12383;SDS011;6256;63.808;20.336;2023-08-08T09:48:45;6.97;;;6.38;;
12383;SDS011;6256;63.808;20.336;2023-08-08T09:51:11;7.55;;;6.68;;
12383;SDS011;6256;63.808;20.336;2023-08-08T09:53:38;7.00;;;6.30;;
12383;SDS011;6256;63.808;20.336;2023-08-08T09:56:05;7.97;;;6.30;;
12383;SDS011;6256;63.808;20.336;2023-08-08T09:58:32;6.10;;;5.60;;
12383;SDS011;6256;63.808;20.336;2023-08-08T10:00:58;6.15;;;5.55;;
12383;SDS011;6256;63.808;20.336;2023-08-08T10:03:24;7.15;;;6.07;;
12383;SDS011;6256;63.808;20.336;2023-08-08T10:05:51;6.47;;;5.97;;
12383;SDS011;6256;63.808;20.336;2023-08-08T10:08:18;7.53;;;6.60;;
12383;SDS011;6256;63.808;20.336;2023-08-08T10:10:44;6.55;;;6.00;;
12383;SDS011;6256;63.808;20.336;2023-08-08T10:13:46;7.30;;;6.60;;
12383;SDS011;6256;63.808;20.336;2023-08-08T10:16:12;6.75;;;6.15;;
12383;SDS011;6256;63.808;20.336;2023-08-08T10:18:40;6.72;;;6.03;;
12383;SDS011;6256;63.808;20.336;2023-08-08T10:21:06;6.47;;;5.88;;
12383;SDS011;6256;63.808;20.336;2023-08-08T10:23:38;6.47;;;5.88;;
12383;SDS011;6256;63.808;20.336;2023-08-08T10:26:04;6.85;;;6.25;;
12383;SDS011;6256;63.808;20.336;2023-08-08T10:28:31;7.68;;;7.05;;
12383;SDS011;6256;63.808;20.336;2023-08-08T10:31:01;6.30;;;5.90;;
12383;SDS011;6256;63.808;20.336;2023-08-08T10:33:28;6.10;;;5.60;;
12383;SDS011;6256;63.808;20.336;2023-08-08T10:36:05;6.57;;;6.03;;
12383;SDS011;6256;63.808;20.336;2023-08-08T10:41:18;6.53;;;5.80;;
12383;SDS011;6256;63.808;20.336;2023-08-08T10:43:52;7.13;;;6.53;;
12383;SDS011;6256;63.808;20.336;2023-08-08T10:46:26;6.20;;;5.68;;
12383;SDS011;6256;63.808;20.336;2023-08-08T10:48:52;6.55;;;5.95;;
12383;SDS011;6256;63.808;20.336;2023-08-08T10:51:19;7.20;;;6.47;;
12383;SDS011;6256;63.808;20.336;2023-08-08T10:53:45;6.38;;;5.72;;
12383;SDS011;6256;63.808;20.336;2023-08-08T10:56:14;6.35;;;5.75;;
12383;SDS011;6256;63.808;20.336;2023-08-08T10:58:40;6.63;;;5.60;;
12383;SDS011;6256;63.808;20.336;2023-08-08T11:01:08;6.63;;;5.78;;
12383;SDS011;6256;63.808;20.336;2023-08-08T11:03:38;6.15;;;5.55;;
12383;SDS011;6256;63.808;20.336;2023-08-08T11:06:08;6.47;;;5.85;;
12383;SDS011;6256;63.808;20.336;2023-08-08T11:08:35;7.28;;;6.00;;
12383;SDS011;6256;63.808;20.336;2023-08-08T11:11:03;6.03;;;5.50;;
12383;SDS011;6256;63.808;20.336;2023-08-08T11:13:30;6.00;;;5.50;;
12383;SDS011;6256;63.808;20.336;2023-08-08T11:15:56;6.68;;;5.95;;
12383;SDS011;6256;63.808;20.336;2023-08-08T11:18:21;6.55;;;5.95;;
12383;SDS011;6256;63.808;20.336;2023-08-08T11:20:48;6.68;;;5.82;;
12383;SDS011;6256;63.808;20.336;2023-08-08T11:23:14;6.10;;;5.60;;
12383;SDS011;6256;63.808;20.336;2023-08-08T11:25:42;5.32;;;4.72;;
12383;SDS011;6256;63.808;20.336;2023-08-08T11:28:09;7.35;;;6.13;;
12383;SDS011;6256;63.808;20.336;2023-08-08T11:30:37;7.15;;;5.28;;
12383;SDS011;6256;63.808;20.336;2023-08-08T11:33:06;5.43;;;5.03;;
12383;SDS011;6256;63.808;20.336;2023-08-08T11:35:32;5.38;;;4.97;;
12383;SDS011;6256;63.808;20.336;2023-08-08T11:37:59;5.70;;;5.18;;
12383;SDS011;6256;63.808;20.336;2023-08-08T11:40:26;7.32;;;5.25;;
12383;SDS011;6256;63.808;20.336;2023-08-08T11:42:56;6.32;;;5.05;;
12383;SDS011;6256;63.808;20.336;2023-08-08T11:45:23;5.53;;;5.03;;
12383;SDS011;6256;63.808;20.336;2023-08-08T11:47:53;5.95;;;5.32;;
12383;SDS011;6256;63.808;20.336;2023-08-08T11:50:20;5.32;;;4.70;;
12383;SDS011;6256;63.808;20.336;2023-08-08T11:52:50;5.15;;;4.65;;
12383;SDS011;6256;63.808;20.336;2023-08-08T11:55:18;5.07;;;4.15;;
12383;SDS011;6256;63.808;20.336;2023-08-08T11:57:48;5.57;;;4.00;;
12383;SDS011;6256;63.808;20.336;2023-08-08T12:00:14;4.80;;;4.13;;
12383;SDS011;6256;63.808;20.336;2023-08-08T12:02:44;6.35;;;3.90;;
12383;SDS011;6256;63.808;20.336;2023-08-08T12:05:11;4.10;;;3.80;;
12383;SDS011;6256;63.808;20.336;2023-08-08T12:07:38;4.45;;;3.90;;
12383;SDS011;6256;63.808;20.336;2023-08-08T12:10:15;4.82;;;4.32;;
12383;SDS011;6256;63.808;20.336;2023-08-08T12:12:43;5.93;;;4.00;;
12383;SDS011;6256;63.808;20.336;2023-08-08T12:15:10;4.72;;;4.32;;
12383;SDS011;6256;63.808;20.336;2023-08-08T12:17:36;4.57;;;4.10;;
12383;SDS011;6256;63.808;20.336;2023-08-08T12:20:03;5.97;;;4.55;;
12383;SDS011;6256;63.808;20.336;2023-08-08T12:22:32;4.93;;;3.72;;
12383;SDS011;6256;63.808;20.336;2023-08-08T12:24:58;4.18;;;3.78;;
12383;SDS011;6256;63.808;20.336;2023-08-08T12:27:25;6.00;;;4.13;;
12383;SDS011;6256;63.808;20.336;2023-08-08T12:29:51;4.93;;;3.92;;
12383;SDS011;6256;63.808;20.336;2023-08-08T12:32:20;3.95;;;3.53;;
12383;SDS011;6256;63.808;20.336;2023-08-08T12:34:48;5.82;;;4.18;;
12383;SDS011;6256;63.808;20.336;2023-08-08T12:37:15;4.70;;;4.00;;
12383;SDS011;6256;63.808;20.336;2023-08-08T12:39:40;4.10;;;3.70;;
12383;SDS011;6256;63.808;20.336;2023-08-08T12:42:06;5.03;;;4.25;;
12383;SDS011;6256;63.808;20.336;2023-08-08T12:44:32;3.55;;;3.13;;
12383;SDS011;6256;63.808;20.336;2023-08-08T12:46:58;4.40;;;3.65;;
12383;SDS011;6256;63.808;20.336;2023-08-08T12:49:24;4.30;;;3.90;;
12383;SDS011;6256;63.808;20.336;2023-08-08T12:51:50;4.50;;;4.10;;
12383;SDS011;6256;63.808;20.336;2023-08-08T12:54:17;4.32;;;3.92;;
12383;SDS011;6256;63.808;20.336;2023-08-08T12:56:42;4.75;;;3.95;;
12383;SDS011;6256;63.808;20.336;2023-08-08T12:59:09;5.32;;;4.20;;
12383;SDS011;6256;63.808;20.336;2023-08-08T13:01:34;5.85;;;4.57;;
12383;SDS011;6256;63.808;20.336;2023-08-08T13:04:00;4.05;;;3.63;;
12383;SDS011;6256;63.808;20.336;2023-08-08T13:06:26;5.38;;;4.45;;
12383;SDS011;6256;63.808;20.336;2023-08-08T13:08:52;5.18;;;4.57;;
12383;SDS011;6256;63.808;20.336;2023-08-08T13:11:17;4.32;;;3.72;;
12383;SDS011;6256;63.808;20.336;2023-08-08T13:13:43;4.65;;;4.15;;
12383;SDS011;6256;63.808;20.336;2023-08-08T13:16:09;6.38;;;3.78;;
12383;SDS011;6256;63.808;20.336;2023-08-08T13:18:35;4.57;;;4.07;;
12383;SDS011;6256;63.808;20.336;2023-08-08T13:21:02;5.20;;;3.60;;
12383;SDS011;6256;63.808;20.336;2023-08-08T13:23:28;5.22;;;3.55;;
12383;SDS011;6256;63.808;20.336;2023-08-08T13:25:54;3.88;;;3.25;;
12383;SDS011;6256;63.808;20.336;2023-08-08T13:28:19;4.30;;;3.90;;
12383;SDS011;6256;63.808;20.336;2023-08-08T13:30:45;3.38;;;3.08;;
12383;SDS011;6256;63.808;20.336;2023-08-08T13:33:11;8.55;;;3.42;;
12383;SDS011;6256;63.808;20.336;2023-08-08T13:35:36;3.60;;;3.30;;
12383;SDS011;6256;63.808;20.336;2023-08-08T13:38:02;3.72;;;3.38;;
12383;SDS011;6256;63.808;20.336;2023-08-08T13:40:28;3.42;;;3.10;;
12383;SDS011;6256;63.808;20.336;2023-08-08T13:42:54;5.95;;;3.17;;
12383;SDS011;6256;63.808;20.336;2023-08-08T13:45:20;3.20;;;2.65;;
12383;SDS011;6256;63.808;20.336;2023-08-08T13:47:47;5.15;;;2.25;;
12383;SDS011;6256;63.808;20.336;2023-08-08T13:53:16;3.05;;;2.30;;
12383;SDS011;6256;63.808;20.336;2023-08-08T13:55:42;1.98;;;1.80;;
12383;SDS011;6256;63.808;20.336;2023-08-08T13:58:09;3.10;;;1.85;;
12383;SDS011;6256;63.808;20.336;2023-08-08T14:00:35;2.65;;;1.80;;
12383;SDS011;6256;63.808;20.336;2023-08-08T14:03:01;1.20;;;1.10;;
12383;SDS011;6256;63.808;20.336;2023-08-08T14:05:30;1.33;;;0.93;;
12383;SDS011;6256;63.808;20.336;2023-08-08T14:07:56;1.10;;;0.98;;
12383;SDS011;6256;63.808;20.336;2023-08-08T14:10:22;1.80;;;0.88;;
12383;SDS011;6256;63.808;20.336;2023-08-08T14:12:47;1.35;;;0.70;;
12383;SDS011;6256;63.808;20.336;2023-08-08T14:15:13;0.70;;;0.60;;
12383;SDS011;6256;63.808;20.336;2023-08-08T14:17:39;0.70;;;0.70;;
12383;SDS011;6256;63.808;20.336;2023-08-08T14:20:05;0.50;;;0.50;;
12383;SDS011;6256;63.808;20.336;2023-08-08T14:22:33;0.55;;;0.38;;
12383;SDS011;6256;63.808;20.336;2023-08-08T14:24:59;0.35;;;0.35;;
12383;SDS011;6256;63.808;20.336;2023-08-08T14:27:25;0.60;;;0.50;;
12383;SDS011;6256;63.808;20.336;2023-08-08T14:29:51;0.35;;;0.35;;
12383;SDS011;6256;63.808;20.336;2023-08-08T14:32:16;0.30;;;0.30;;
12383;SDS011;6256;63.808;20.336;2023-08-08T14:34:42;0.50;;;0.50;;
12383;SDS011;6256;63.808;20.336;2023-08-08T14:37:08;0.30;;;0.25;;
12383;SDS011;6256;63.808;20.336;2023-08-08T14:39:33;1.13;;;0.50;;
12383;SDS011;6256;63.808;20.336;2023-08-08T14:41:59;0.60;;;0.60;;
12383;SDS011;6256;63.808;20.336;2023-08-08T14:44:25;0.60;;;0.50;;
12383;SDS011;6256;63.808;20.336;2023-08-08T14:46:52;0.50;;;0.35;;
12383;SDS011;6256;63.808;20.336;2023-08-08T14:49:17;1.08;;;0.40;;
12383;SDS011;6256;63.808;20.336;2023-08-08T14:51:43;0.57;;;0.50;;